Time;durP1;ratioP1;P1;durP2;ratioP2;P2;SDS_P1;SDS_P2;PMS_P1;PMS_P2;Temp;Humidity;BMP_temperature;BMP_pressure;BME280_temperature;BME280_humidity;BME280_pressure;Samples;Min_cycle;Max_cycle;Signal;HPM_P1;HPM_P2
2022/03/29 00:00:33;;;;;;;;;38.00;28.33;;;;;16.98;35.33;101036.69;5060602;28;45410;-45
2022/03/29 00:02:59;;;;;;;;;42.00;32.33;;;;;16.94;35.81;101035.38;5060192;28;45926;-45
2022/03/29 00:05:25;;;;;;;;;36.67;27.33;;;;;16.93;35.62;101028.31;5060153;28;45208;-45
2022/03/29 00:07:50;;;;;;;;;42.33;31.67;;;;;16.91;35.79;101024.97;5060803;28;45285;-44
2022/03/29 00:10:15;;;;;;;;;33.33;27.00;;;;;16.94;35.71;101019.25;5060697;28;45411;-52
2022/03/29 00:12:41;;;;;;;;;40.00;32.00;;;;;16.93;36.15;101018.38;5059765;28;45366;-45
2022/03/29 00:15:07;;;;;;;;;43.67;33.00;;;;;16.92;35.84;101011.34;5060246;28;45488;-45
2022/03/29 00:17:32;;;;;;;;;28.00;16.67;;;;;16.90;36.22;101002.66;5059478;28;45357;-45
2022/03/29 00:19:58;;;;;;;;;41.33;33.00;;;;;16.89;35.78;101013.56;5059236;28;45235;-46
2022/03/29 00:22:24;;;;;;;;;39.33;26.33;;;;;16.87;36.17;100994.13;5059899;28;46079;-49
2022/03/29 00:24:50;;;;;;;;;42.33;31.00;;;;;16.76;35.76;100976.56;5060174;28;45498;-46
2022/03/29 00:27:15;;;;;;;;;29.33;27.00;;;;;16.85;36.10;100993.44;5060062;28;45448;-47
2022/03/29 00:29:40;;;;;;;;;17.00;12.67;;;;;16.85;36.80;100988.06;5060164;28;45385;-48
2022/03/29 00:32:07;;;;;;;;;42.33;32.67;;;;;16.82;35.94;100994.66;5059623;28;47121;-45
2022/03/29 00:34:36;;;;;;;;;48.67;34.00;;;;;16.79;36.21;100978.06;5041516;28;45489;-46
2022/03/29 00:37:03;;;;;;;;;47.33;37.33;;;;;16.80;35.96;100975.19;5059654;28;45404;-51
2022/03/29 00:39:28;;;;;;;;;50.00;37.00;;;;;16.77;36.64;100975.56;5059962;28;45286;-46
2022/03/29 00:41:54;;;;;;;;;44.33;35.33;;;;;16.70;36.87;100964.66;5058558;28;45985;-46
2022/03/29 00:44:29;;;;;;;;;45.67;34.00;;;;;16.73;36.69;100973.41;5058904;28;45318;-47
2022/03/29 00:46:55;;;;;;;;;40.33;33.00;;;;;16.69;36.94;100962.19;5059388;28;45426;-50
2022/03/29 00:49:20;;;;;;;;;43.67;34.00;;;;;16.70;36.63;100963.84;5060235;28;45439;-47
2022/03/29 00:51:46;;;;;;;;;33.67;27.67;;;;;16.64;36.16;100951.13;5059671;28;45381;-46
2022/03/29 00:54:12;;;;;;;;;41.33;32.00;;;;;16.65;36.29;100952.81;5058666;28;45341;-44
2022/03/29 00:56:38;;;;;;;;;41.33;28.33;;;;;16.63;36.58;100947.59;5058507;28;45373;-51
2022/03/29 00:59:04;;;;;;;;;40.33;29.67;;;;;16.59;36.64;100946.28;5060597;28;45631;-49
2022/03/29 01:01:30;;;;;;;;;41.00;27.67;;;;;16.54;36.81;100932.56;5059399;28;45523;-46
2022/03/29 01:03:55;;;;;;;;;40.67;32.00;;;;;16.56;36.07;100932.38;5059403;28;45263;-46
2022/03/29 01:06:20;;;;;;;;;36.33;29.67;;;;;16.55;36.98;100922.66;5059004;28;45529;-48
2022/03/29 01:08:46;;;;;;;;;32.00;27.33;;;;;16.52;37.05;100921.19;5059486;28;45322;-45
2022/03/29 01:11:12;;;;;;;;;37.00;31.00;;;;;16.40;36.70;100899.31;5059213;28;45410;-45
2022/03/29 01:13:41;;;;;;;;;38.67;28.67;;;;;16.44;36.48;100907.84;5058983;28;45467;-48
2022/03/29 01:18:52;;;;;;;;;43.67;30.67;;;;;16.45;37.26;100913.03;5059529;28;45408;-46
2022/03/29 01:21:20;;;;;;;;;37.67;28.67;;;;;16.38;36.83;100900.50;5058667;28;47246;-45
2022/03/29 01:23:47;;;;;;;;;38.67;28.33;;;;;16.41;36.82;100903.66;5058257;28;45372;-48
2022/03/29 01:26:16;;;;;;;;;40.33;32.67;;;;;16.35;36.96;100899.03;5059042;28;45819;-50
2022/03/29 01:28:42;;;;;;;;;43.33;31.33;;;;;16.35;37.10;100900.84;5059116;28;45540;-45
2022/03/29 01:31:09;;;;;;;;;38.33;30.67;;;;;16.38;36.47;100900.50;5058658;28;45302;-45
2022/03/29 01:33:34;;;;;;;;;29.33;21.00;;;;;16.38;37.19;100900.50;5058329;28;45379;-46
2022/03/29 01:36:01;;;;;;;;;33.33;29.00;;;;;16.39;36.71;100894.09;5058979;28;45290;-47
2022/03/29 01:38:27;;;;;;;;;39.33;28.33;;;;;16.38;36.95;100882.53;5059667;28;45409;-46
2022/03/29 01:41:00;;;;;;;;;30.67;28.00;;;;;16.38;36.72;100887.91;5059451;28;46190;-49
2022/03/29 01:43:25;;;;;;;;;38.33;29.67;;;;;16.39;36.76;100880.66;5058390;28;45377;-49
2022/03/29 01:45:51;;;;;;;;;36.00;27.67;;;;;16.40;37.07;100875.13;5058385;28;45417;-48
2022/03/29 01:48:16;;;;;;;;;37.33;27.00;;;;;16.42;35.99;100873.09;5058678;28;45433;-47
2022/03/29 01:50:41;;;;;;;;;42.00;32.33;;;;;16.41;36.56;100874.13;5058107;28;46101;-46
2022/03/29 01:53:07;;;;;;;;;38.33;33.67;;;;;16.44;36.12;100872.94;5058217;28;45322;-47
2022/03/29 01:55:32;;;;;;;;;33.67;28.33;;;;;16.46;36.34;100871.72;5058466;28;45353;-48
2022/03/29 01:57:58;;;;;;;;;36.67;27.33;;;;;16.45;35.93;100866.53;5058261;28;45460;-50
2022/03/29 02:00:33;;;;;;;;;36.33;26.67;;;;;16.48;35.61;100868.88;5041092;28;46076;-49
2022/03/29 02:03:03;;;;;;;;;28.00;25.00;;;;;16.48;35.74;100865.34;5037566;28;45443;-51
2022/03/29 02:05:30;;;;;;;;;36.00;26.33;;;;;16.48;35.78;100866.19;5037571;28;45215;-48
2022/03/29 02:07:57;;;;;;;;;27.00;20.33;;;;;16.48;35.93;100852.75;5038054;28;45237;-48
2022/03/29 02:10:22;;;;;;;;;39.33;25.00;;;;;16.48;35.91;100847.38;5037305;28;46287;-48
2022/03/29 02:12:50;;;;;;;;;35.67;27.67;;;;;16.54;35.84;100845.81;5037592;28;45422;-46
2022/03/29 02:15:15;;;;;;;;;31.00;25.33;;;;;16.55;35.98;100844.78;5052728;28;45523;-46
2022/03/29 02:17:43;;;;;;;;;34.00;29.00;;;;;16.55;35.42;100839.41;5037761;28;45505;-46
2022/03/29 02:20:09;;;;;;;;;34.00;26.67;;;;;16.44;35.45;100816.53;5037514;28;46348;-44
2022/03/29 02:22:34;;;;;;;;;33.67;20.00;;;;;16.50;35.64;100821.16;5036779;28;45287;-45
2022/03/29 02:25:00;;;;;;;;;31.67;26.00;;;;;16.50;35.15;100814.97;5037047;28;45503;-45
2022/03/29 02:27:26;;;;;;;;;34.33;27.00;;;;;16.32;34.99;100793.84;5037184;28;45454;-44
2022/03/29 02:29:51;;;;;;;;;26.67;24.67;;;;;16.36;34.45;100801.34;5037098;28;46480;-49
2022/03/29 02:32:16;;;;;;;;;30.00;23.67;;;;;16.36;34.39;100803.19;5036876;28;45392;-49
2022/03/29 02:34:42;;;;;;;;;39.00;26.00;;;;;16.33;34.13;100793.66;5037143;28;45367;-49
2022/03/29 02:37:08;;;;;;;;;25.33;20.67;;;;;16.22;34.18;100777.97;5052369;28;45855;-46
2022/03/29 02:39:33;;;;;;;;;20.33;15.67;;;;;16.34;34.32;100795.31;5036791;28;46176;-45
2022/03/29 02:41:58;;;;;;;;;30.67;25.00;;;;;16.34;34.22;100789.94;5037121;28;45408;-44
2022/03/29 02:44:24;;;;;;;;;29.00;22.00;;;;;16.35;34.34;100791.63;5054871;28;45334;-46
2022/03/29 02:46:50;;;;;;;;;34.33;27.00;;;;;16.37;34.31;100788.75;5040877;28;45448;-46
2022/03/29 02:49:16;;;;;;;;;30.67;23.33;;;;;16.33;34.19;100779.41;5040573;28;47523;-47
2022/03/29 02:51:42;;;;;;;;;33.67;23.67;;;;;16.33;33.64;100771.34;5040599;28;45414;-49
2022/03/29 02:54:08;;;;;;;;;28.00;22.67;;;;;16.40;33.51;100777.66;5040138;28;45318;-46
2022/03/29 02:56:33;;;;;;;;;39.33;27.00;;;;;16.41;33.77;100776.63;5040696;28;45189;-47
2022/03/29 02:58:59;;;;;;;;;27.67;21.33;;;;;16.43;33.69;100774.56;5040022;28;45482;-51
2022/03/29 03:01:28;;;;;;;;;27.33;22.67;;;;;16.45;33.44;100764.50;5040300;28;45328;-48
2022/03/29 03:03:55;;;;;;;;;26.00;19.00;;;;;16.44;33.46;100763.69;5040674;28;45588;-48
2022/03/29 03:06:21;;;;;;;;;26.67;20.67;;;;;16.46;33.63;100766.16;5040486;28;45417;-50
2022/03/29 03:08:46;;;;;;;;;29.00;22.33;;;;;16.50;33.53;100769.31;5040198;28;45346;-52
2022/03/29 03:11:11;;;;;;;;;28.33;20.33;;;;;16.50;33.01;100766.63;5039984;28;45342;-50
2022/03/29 03:13:37;;;;;;;;;27.00;22.00;;;;;16.48;33.29;100766.84;5040083;28;45399;-50
2022/03/29 03:16:02;;;;;;;;;26.67;20.33;;;;;16.49;33.47;100770.34;5039851;28;45833;-49
2022/03/29 03:18:28;;;;;;;;;36.67;26.33;;;;;16.48;33.63;100750.72;5039775;28;46839;-49
2022/03/29 03:20:53;;;;;;;;;31.67;23.33;;;;;16.49;33.18;100754.22;5039994;28;45166;-50
2022/03/29 03:23:18;;;;;;;;;30.67;21.00;;;;;16.45;32.93;100751.09;5039891;28;45283;-48
2022/03/29 03:25:44;;;;;;;;;27.67;22.33;;;;;16.41;32.63;100736.34;5040042;28;45375;-50
2022/03/29 03:28:09;;;;;;;;;26.00;18.67;;;;;16.36;32.57;100736.09;5039764;28;46012;-47
2022/03/29 03:30:35;;;;;;;;;26.33;21.67;;;;;16.25;32.61;100725.78;5039604;28;45343;-47
2022/03/29 03:33:00;;;;;;;;;29.00;24.33;;;;;16.36;32.59;100744.13;5039728;28;45291;-47
2022/03/29 03:35:26;;;;;;;;;25.00;24.00;;;;;16.34;32.64;100743.47;5039994;28;45259;-51
2022/03/29 03:37:51;;;;;;;;;25.67;22.33;;;;;16.37;32.64;100746.63;5039478;28;45373;-51
2022/03/29 03:40:17;;;;;;;;;25.67;21.33;;;;;16.32;32.57;100726.72;5039428;28;45515;-49
2022/03/29 03:42:43;;;;;;;;;27.33;24.00;;;;;16.32;32.82;100732.94;5039721;28;45279;-51
2022/03/29 03:45:09;;;;;;;;;24.33;22.00;;;;;16.33;32.91;100736.44;5039600;28;45304;-44
2022/03/29 03:47:35;;;;;;;;;31.67;27.33;;;;;16.13;33.25;100702.09;5039344;28;45406;-49
2022/03/29 03:50:01;;;;;;;;;29.00;22.67;;;;;16.28;33.44;100717.38;5054711;28;45419;-45
2022/03/29 03:52:27;;;;;;;;;36.00;23.33;;;;;16.27;33.33;100729.97;5039435;28;45414;-48
2022/03/29 03:54:54;;;;;;;;;30.00;25.33;;;;;16.25;33.56;100709.69;5039576;28;45198;-50
2022/03/29 03:57:20;;;;;;;;;25.00;22.33;;;;;16.26;33.30;100720.22;5038930;28;46414;-48
2022/03/29 03:59:48;;;;;;;;;34.33;26.00;;;;;16.22;33.44;100713.56;5039103;28;45364;-51
2022/03/29 04:02:15;;;;;;;;;31.33;27.00;;;;;16.16;33.46;100712.47;5039368;28;45368;-48
2022/03/29 04:04:41;;;;;;;;;30.33;23.67;;;;;16.19;33.63;100717.47;5039350;28;45308;-49
2022/03/29 04:07:06;;;;;;;;;23.67;21.67;;;;;16.18;33.63;100713.13;5038819;28;45541;-49
2022/03/29 04:09:35;;;;;;;;;32.00;26.00;;;;;16.18;33.73;100706.91;5039296;28;45386;-48
2022/03/29 04:12:04;;;;;;;;;31.67;24.00;;;;;16.18;33.86;100706.91;5039114;28;45324;-50
2022/03/29 04:14:30;;;;;;;;;30.00;21.67;;;;;16.15;34.08;100702.75;5039349;28;45483;-48
2022/03/29 04:16:56;;;;;;;;;36.67;28.67;;;;;16.13;33.85;100707.44;5038365;28;46983;-48
2022/03/29 04:19:21;;;;;;;;;40.00;26.33;;;;;16.12;33.89;100697.75;5038922;28;45379;-48
2022/03/29 04:21:46;;;;;;;;;26.67;23.67;;;;;16.13;33.88;100698.56;5039175;28;45609;-46
2022/03/29 04:24:12;;;;;;;;;31.00;24.67;;;;;16.13;34.15;100696.72;5039406;28;45461;-46
2022/03/29 04:26:38;;;;;;;;;24.00;20.00;;;;;16.12;33.95;100691.53;5038840;28;46143;-50
2022/03/29 04:29:03;;;;;;;;;29.33;24.67;;;;;16.11;34.12;100700.63;5038821;28;45352;-48
2022/03/29 04:31:28;;;;;;;;;30.67;23.33;;;;;16.09;34.35;100706.16;5037411;28;45472;-47
2022/03/29 04:33:54;;;;;;;;;30.67;23.67;;;;;16.06;34.72;100709.22;5039088;28;45488;-48
2022/03/29 04:36:19;;;;;;;;;25.00;22.67;;;;;16.04;34.91;100708.56;5038837;28;47092;-51
2022/03/29 04:38:45;;;;;;;;;29.67;22.67;;;;;16.02;34.98;100707.91;5038812;28;45208;-51
2022/03/29 04:41:11;;;;;;;;;29.67;24.67;;;;;15.95;35.06;100707.81;5038862;28;45427;-46
2022/03/29 04:43:36;;;;;;;;;34.00;21.67;;;;;15.90;35.23;100693.28;5039057;28;45422;-47
2022/03/29 04:46:02;;;;;;;;;35.33;24.33;;;;;15.89;35.21;100686.25;5038501;28;45521;-50
2022/03/29 04:48:28;;;;;;;;;23.67;20.67;;;;;15.89;34.64;100686.25;5038615;28;45380;-48
2022/03/29 04:50:54;;;;;;;;;26.00;23.33;;;;;15.79;34.91;100680.31;5038632;28;45388;-49
2022/03/29 04:53:19;;;;;;;;;31.67;27.33;;;;;15.77;35.55;100695.75;5038747;28;45277;-47
2022/03/29 04:55:44;;;;;;;;;30.33;23.00;;;;;15.77;35.58;100695.75;5038228;28;47126;-47
2022/03/29 04:58:10;;;;;;;;;32.33;26.33;;;;;15.75;35.51;100695.91;5038536;28;45336;-47
2022/03/29 05:00:36;;;;;;;;;32.00;27.33;;;;;15.75;35.55;100690.56;5038260;28;45257;-46
2022/03/29 05:03:01;;;;;;;;;33.33;23.33;;;;;15.70;35.65;100685.75;5038645;28;45313;-48
2022/03/29 05:05:26;;;;;;;;;32.33;23.33;;;;;15.71;35.43;100683.88;5053659;28;45294;-47
2022/03/29 05:07:52;;;;;;;;;25.67;19.67;;;;;15.63;35.33;100679.44;5037722;28;45183;-45
2022/03/29 05:10:17;;;;;;;;;38.00;23.33;;;;;15.54;35.29;100659.03;5038257;28;45309;-45
2022/03/29 05:12:45;;;;;;;;;26.00;22.33;;;;;15.61;35.51;100677.94;5038585;28;45215;-48
2022/03/29 05:15:12;;;;;;;;;31.00;26.00;;;;;15.58;36.08;100680.97;5037981;28;45873;-44
2022/03/29 05:17:39;;;;;;;;;32.33;23.67;;;;;15.54;36.10;100699.25;5056678;28;45450;-46
2022/03/29 05:20:07;;;;;;;;;26.67;22.33;;;;;15.52;36.79;100701.28;5056855;28;45403;-49
2022/03/29 05:22:39;;;;;;;;;31.33;21.00;;;;;15.50;36.71;100703.31;5058185;28;45336;-48
2022/03/29 05:25:05;;;;;;;;;27.67;20.67;;;;;15.55;36.44;100697.41;5057005;28;45548;-50
2022/03/29 05:27:31;;;;;;;;;31.00;22.50;;;;;15.54;36.34;100687.69;5037740;28;45334;-50
2022/03/29 05:29:56;;;;;;;;;37.67;26.33;;;;;15.52;36.31;100679.84;5038294;28;45396;-50
2022/03/29 05:32:22;;;;;;;;;32.00;24.33;;;;;15.53;36.56;100681.50;5057175;28;45306;-47
2022/03/29 05:34:47;;;;;;;;;30.67;25.00;;;;;15.49;36.81;100674.84;5057701;28;45189;-46
2022/03/29 05:37:14;;;;;;;;;32.33;26.00;;;;;15.56;36.81;100691.06;5057562;28;45258;-47
2022/03/29 05:39:40;;;;;;;;;29.33;26.33;;;;;15.57;36.69;100692.72;5057932;28;45352;-49
2022/03/29 05:42:06;;;;;;;;;24.00;20.00;;;;;15.58;36.56;100686.31;5058115;28;45209;-45
2022/03/29 05:44:32;;;;;;;;;24.33;20.67;;;;;15.59;36.29;100682.63;5057774;28;46098;-47
2022/03/29 05:49:41;;;;;;;;;28.00;25.67;;;;;15.56;36.56;100674.97;5057855;28;45345;-45
2022/03/29 05:52:06;;;;;;;;;35.00;25.00;;;;;15.58;36.80;100678.28;5056894;28;45198;-46
2022/03/29 05:54:32;;;;;;;;;28.67;23.00;;;;;15.59;36.75;100671.91;5054115;28;47103;-46
2022/03/29 05:56:57;;;;;;;;;29.33;22.00;;;;;15.62;36.79;100671.53;5053301;28;45432;-47
2022/03/29 05:59:23;;;;;;;;;34.00;23.67;;;;;15.64;36.58;100678.44;5056382;28;45300;-45
2022/03/29 06:01:48;;;;;;;;;31.33;24.00;;;;;15.64;36.59;100674.88;5049893;28;45526;-46
2022/03/29 06:04:14;;;;;;;;;34.33;24.00;;;;;15.65;36.28;100671.22;5052273;28;45997;-45
2022/03/29 06:06:41;;;;;;;;;27.33;20.33;;;;;15.67;36.58;100678.09;5056901;28;45473;-47
2022/03/29 06:09:06;;;;;;;;;26.33;25.00;;;;;15.69;36.27;100681.41;5057404;28;45388;-47
2022/03/29 06:11:32;;;;;;;;;30.33;19.00;;;;;15.70;35.99;100687.59;5057317;28;45398;-44
2022/03/29 06:13:58;;;;;;;;;31.00;23.33;;;;;15.64;35.96;100672.22;5055809;28;46166;-45
2022/03/29 06:16:24;;;;;;;;;29.33;22.67;;;;;15.68;35.66;100684.28;5056073;28;45565;-47
2022/03/29 06:18:50;;;;;;;;;31.00;23.67;;;;;15.68;35.86;100695.00;5055913;28;45298;-46
2022/03/29 06:21:18;;;;;;;;;26.67;19.00;;;;;15.66;36.00;100697.84;5052565;28;45494;-46
2022/03/29 06:23:44;;;;;;;;;25.33;20.33;;;;;15.66;35.82;100707.75;5036626;28;47260;-50
2022/03/29 06:26:09;;;;;;;;;31.00;26.33;;;;;15.64;35.96;100715.13;5040861;28;45513;-49
2022/03/29 06:28:35;;;;;;;;;36.67;28.33;;;;;15.62;36.07;100706.41;5056421;28;45420;-49
2022/03/29 06:31:00;;;;;;;;;28.00;24.00;;;;;15.67;35.74;100721.00;5054548;28;45484;-44
2022/03/29 06:33:26;;;;;;;;;31.33;22.00;;;;;15.64;36.23;100715.13;5054163;28;45512;-46
2022/03/29 06:35:52;;;;;;;;;31.00;26.00;;;;;15.53;36.40;100697.59;5054029;28;45551;-46
2022/03/29 06:38:21;;;;;;;;;31.33;23.33;;;;;15.60;36.89;100711.97;5054014;28;45397;-48
2022/03/29 06:40:48;;;;;;;;;34.33;23.67;;;;;15.50;37.28;100697.13;5052416;28;45362;-46
2022/03/29 06:43:13;;;;;;;;;30.00;24.67;;;;;15.55;37.62;100703.63;5053959;28;46071;-45
2022/03/29 06:45:39;;;;;;;;;28.67;21.33;;;;;15.56;37.85;100696.41;5053795;28;45506;-47
2022/03/29 06:48:05;;;;;;;;;36.33;25.67;;;;;15.60;38.02;100708.44;5054237;28;45385;-46
2022/03/29 06:50:32;;;;;;;;;30.00;24.67;;;;;15.63;37.93;100702.69;5054109;28;45430;-45
2022/03/29 06:52:59;;;;;;;;;32.00;24.00;;;;;15.64;38.11;100689.16;5053661;28;45427;-46
2022/03/29 06:55:26;;;;;;;;;28.00;19.33;;;;;15.76;38.16;100704.78;5053659;28;45575;-46
2022/03/29 06:57:51;;;;;;;;;29.67;24.67;;;;;15.79;37.24;100705.28;5054205;28;45408;-48
2022/03/29 07:00:17;;;;;;;;;29.33;24.00;;;;;15.82;38.02;100698.72;5054212;28;45431;-46
2022/03/29 07:02:46;;;;;;;;;37.67;26.67;;;;;15.88;37.78;100698.81;5053438;28;45814;-47
2022/03/29 07:05:12;;;;;;;;;30.67;21.00;;;;;15.94;37.13;100690.06;5053816;28;45800;-45
2022/03/29 07:07:37;;;;;;;;;27.00;24.50;;;;;15.98;37.68;100692.38;5053548;28;45497;-48
2022/03/29 07:12:48;;;;;;;;;34.33;25.00;;;;;16.09;37.36;100676.63;5053819;28;46028;-48
2022/03/29 07:15:14;;;;;;;;;31.00;25.33;;;;;16.07;36.99;100662.59;5053614;28;45509;-45
2022/03/29 07:17:39;;;;;;;;;25.67;22.00;;;;;16.12;36.95;100672.75;5053608;28;45404;-47
2022/03/29 07:20:05;;;;;;;;;29.33;23.00;;;;;16.17;37.04;100679.22;5053291;28;45571;-46
2022/03/29 07:22:31;;;;;;;;;30.00;24.33;;;;;16.22;36.87;100681.34;5053702;28;45392;-47
2022/03/29 07:24:56;;;;;;;;;34.00;26.33;;;;;16.21;36.38;100675.16;5053486;28;45548;-46
2022/03/29 07:27:21;;;;;;;;;31.67;23.33;;;;;16.29;36.38;100674.25;5053243;28;46223;-47
2022/03/29 07:29:48;;;;;;;;;30.00;26.00;;;;;16.35;36.29;100676.19;5054992;28;45231;-45
2022/03/29 07:32:14;;;;;;;;;36.67;29.00;;;;;16.34;36.22;100677.19;5056802;28;47164;-49
2022/03/29 07:34:40;;;;;;;;;28.67;22.00;;;;;16.38;36.62;100678.47;5056590;28;45453;-51
2022/03/29 07:37:06;;;;;;;;;33.00;26.33;;;;;16.42;36.56;100676.25;5057316;28;45651;-48
2022/03/29 07:39:31;;;;;;;;;32.33;25.67;;;;;16.46;36.60;100666.81;5057133;28;45507;-47
2022/03/29 07:41:57;;;;;;;;;34.33;27.00;;;;;16.47;36.34;100673.84;5056239;28;46427;-46
2022/03/29 07:44:22;;;;;;;;;34.67;25.67;;;;;16.46;36.20;100667.66;5057112;28;45417;-45
2022/03/29 07:46:48;;;;;;;;;33.33;25.67;;;;;16.48;36.30;100669.34;5056853;28;45338;-48
2022/03/29 07:49:13;;;;;;;;;31.00;23.33;;;;;16.51;36.41;100671.63;5056739;28;45508;-47
2022/03/29 07:51:39;;;;;;;;;31.00;23.33;;;;;16.56;36.10;100667.38;5056759;28;46111;-46
2022/03/29 07:54:05;;;;;;;;;28.67;21.67;;;;;16.58;35.97;100661.81;5056333;28;45865;-48
2022/03/29 07:56:31;;;;;;;;;40.00;29.67;;;;;16.58;35.64;100649.22;5057102;28;45366;-47
2022/03/29 07:58:56;;;;;;;;;32.67;26.00;;;;;16.64;35.57;100663.72;5056958;28;46331;-47
2022/03/29 08:01:22;;;;;;;;;37.33;25.33;;;;;16.52;34.91;100641.06;5056468;28;46495;-45
2022/03/29 08:03:48;;;;;;;;;46.33;33.00;;;;;16.67;35.28;100652.63;5056156;28;45455;-44
2022/03/29 08:06:13;;;;;;;;;29.00;24.67;;;;;16.70;35.38;100644.19;5056174;28;45389;-47
2022/03/29 08:08:40;;;;;;;;;36.00;28.67;;;;;16.80;35.38;100643.91;5054493;28;45412;-51
2022/03/29 08:11:08;;;;;;;;;30.33;23.00;;;;;16.87;34.87;100645.66;5056405;28;47085;-52
2022/03/29 08:13:34;;;;;;;;;34.33;28.67;;;;;16.92;35.18;100639.69;5056404;28;45559;-49
2022/03/29 08:16:01;;;;;;;;;36.33;30.33;;;;;17.04;35.12;100637.34;5055662;28;45365;-45
2022/03/29 08:18:28;;;;;;;;;34.33;30.00;;;;;17.16;34.58;100635.81;5056313;28;45420;-49
2022/03/29 08:20:53;;;;;;;;;39.00;27.33;;;;;17.34;34.34;100629.97;5056310;28;46417;-48
2022/03/29 08:23:19;;;;;;;;;41.00;31.67;;;;;17.55;34.25;100629.94;5056321;28;45422;-51
2022/03/29 08:25:44;;;;;;;;;39.00;32.67;;;;;17.75;33.80;100634.69;5056116;28;45471;-48
2022/03/29 08:28:10;;;;;;;;;34.33;27.67;;;;;18.00;33.36;100627.81;5056509;28;45416;-47
2022/03/29 08:30:36;;;;;;;;;38.33;30.00;;;;;18.32;32.82;100623.59;5055876;28;45440;-47
2022/03/29 08:33:02;;;;;;;;;36.67;28.00;;;;;18.64;32.89;100629.34;5056069;28;45460;-46
2022/03/29 08:35:28;;;;;;;;;26.33;20.33;;;;;19.09;32.42;100617.03;5056097;28;45455;-47
2022/03/29 08:37:53;;;;;;;;;34.67;30.33;;;;;19.63;31.49;100617.88;5056270;28;45489;-49
2022/03/29 08:40:26;;;;;;;;;36.33;29.33;;;;;20.11;30.94;100615.72;5053526;28;46288;-49
2022/03/29 08:42:54;;;;;;;;;37.00;26.33;;;;;20.63;30.47;100611.19;5055354;28;45464;-44
2022/03/29 08:45:25;;;;;;;;;40.00;30.33;;;;;21.06;29.53;100599.69;5055982;28;45429;-44
2022/03/29 08:47:53;;;;;;;;;39.33;28.67;;;;;21.56;29.28;100597.00;5055995;28;46241;-44
2022/03/29 08:50:18;;;;;;;;;36.67;30.67;;;;;21.83;28.54;100586.75;5055677;28;47046;-44
2022/03/29 08:52:46;;;;;;;;;36.67;30.00;;;;;22.27;28.59;100584.00;5055866;28;45314;-45
2022/03/29 08:55:11;;;;;;;;;31.67;28.67;;;;;22.78;28.18;100574.53;5056103;28;45459;-44
2022/03/29 08:57:38;;;;;;;;;38.67;30.33;;;;;23.58;26.99;100579.53;5056299;28;45271;-45
2022/03/29 09:00:06;;;;;;;;;39.33;32.00;;;;;24.43;25.81;100572.69;5055760;28;45551;-44
2022/03/29 09:02:34;;;;;;;;;46.67;32.00;;;;;25.15;25.15;100575.63;5055341;28;45563;-46
2022/03/29 09:05:12;;;;;;;;;44.00;32.00;;;;;25.31;25.37;100571.25;5054343;28;46714;-45
2022/03/29 09:07:50;;;;;;;;;37.67;30.00;;;;;24.88;26.18;100564.53;5055524;28;45439;-48
2022/03/29 09:10:15;;;;;;;;;36.67;28.67;;;;;24.42;25.13;100550.09;5055264;28;46886;-47
2022/03/29 09:12:41;;;;;;;;;31.33;25.33;;;;;24.34;26.34;100573.03;5055236;28;45475;-47
2022/03/29 09:15:08;;;;;;;;;42.00;27.00;;;;;24.07;26.19;100569.22;5055627;28;45501;-45
2022/03/29 09:17:45;;;;;;;;;36.00;27.67;;;;;23.67;27.23;100566.44;5055608;28;45547;-46
2022/03/29 09:20:16;;;;;;;;;41.00;29.33;;;;;23.34;26.34;100559.69;5052772;28;47229;-45
2022/03/29 09:22:48;;;;;;;;;36.67;31.67;;;;;23.41;26.48;100565.81;5055351;28;45433;-45
2022/03/29 09:25:20;;;;;;;;;39.33;31.00;;;;;23.62;27.03;100564.41;5055582;28;45508;-45
2022/03/29 09:27:52;;;;;;;;;42.33;31.00;;;;;23.87;26.09;100553.31;5055359;28;45442;-47
2022/03/29 09:30:17;;;;;;;;;42.00;30.00;;;;;24.00;26.39;100552.22;5053983;28;46505;-51
2022/03/29 09:33:07;;;;;;;;;35.67;29.67;;;;;23.86;25.66;100549.78;5055279;28;45587;-46
2022/03/29 09:35:35;;;;;;;;;42.33;32.33;;;;;23.64;26.67;100554.16;5055039;28;45486;-45
2022/03/29 09:38:01;;;;;;;;;39.33;26.67;;;;;23.74;26.34;100546.25;5054967;28;45614;-45
2022/03/29 09:40:39;;;;;;;;;38.67;30.00;;;;;24.28;25.87;100554.97;5054425;28;46959;-45
2022/03/29 09:43:11;;;;;;;;;35.67;30.33;;;;;24.92;25.77;100557.53;5054792;28;45526;-47
2022/03/29 09:45:45;;;;;;;;;38.00;31.00;;;;;25.54;25.25;100556.66;5055063;28;45502;-47
2022/03/29 09:48:25;;;;;;;;;29.67;22.33;;;;;26.11;24.61;100551.69;5054838;28;46074;-45
2022/03/29 09:50:56;;;;;;;;;31.00;25.00;;;;;26.72;24.07;100540.69;5054550;28;46286;-46
2022/03/29 09:53:41;;;;;;;;;35.33;30.33;;;;;27.25;22.94;100529.94;5054420;28;45523;-51
2022/03/29 09:56:10;;;;;;;;;39.00;31.33;;;;;27.64;22.58;100518.69;5054964;28;45523;-46
2022/03/29 09:58:36;;;;;;;;;32.75;30.00;;;;;28.10;22.40;100531.47;5055029;28;45369;-46
2022/03/29 10:01:04;;;;;;;;;38.25;29.75;;;;;27.97;22.68;100514.75;5054362;28;46178;-47
2022/03/29 10:03:33;;;;;;;;;32.00;25.50;;;;;28.16;21.84;100526.06;5054635;28;45496;-44
2022/03/29 10:06:05;;;;;;;;;44.00;32.00;;;;;28.47;22.03;100522.31;5053847;28;45532;-46
2022/03/29 10:11:19;;;;;;;;;42.00;35.00;;;;;28.75;21.44;100512.78;5054202;28;45491;-48
2022/03/29 10:13:46;;;;;;;;;49.75;33.50;;;;;29.12;21.04;100516.34;5054494;28;45381;-51
2022/03/29 10:16:14;;;;;;;;;44.75;33.00;;;;;29.49;21.32;100513.25;5054157;28;45821;-44
2022/03/29 10:18:44;;;;;;;;;39.50;32.00;;;;;29.95;20.24;100510.41;5054233;28;45453;-45
2022/03/29 10:21:15;;;;;;;;;38.00;29.75;;;;;30.27;20.24;100499.84;5054089;28;46487;-46
2022/03/29 10:23:46;;;;;;;;;35.25;29.75;;;;;30.27;20.50;100497.09;5052982;28;45472;-49
2022/03/29 10:26:16;;;;;;;;;44.50;31.25;;;;;30.24;20.13;100499.56;5053953;28;45433;-50
2022/03/29 10:28:42;;;;;;;;;45.75;33.00;;;;;30.18;19.93;100490.56;5054784;28;45379;-45
2022/03/29 10:31:36;;;;;;;;;43.75;30.25;;;;;30.32;19.64;100490.75;5054077;28;46308;-45
2022/03/29 10:34:30;;;;;;;;;37.00;30.25;;;;;31.27;19.17;100489.44;5050398;28;45866;-47
2022/03/29 10:37:07;;;;;;;;;37.50;32.75;;;;;32.13;18.32;100486.78;5051481;28;45519;-48
2022/03/29 10:39:50;;;;;;;;;43.00;31.50;;;;;32.93;17.51;100483.91;5054267;28;45453;-47
2022/03/29 10:42:49;;;;;;;;;42.50;35.25;;;;;32.66;18.43;100478.28;5053844;28;46376;-46
2022/03/29 10:45:22;;;;;;;;;39.00;30.00;;;;;32.95;18.33;100473.41;4933238;28;45476;-45
2022/03/29 10:48:09;;;;;;;;;38.40;29.00;;;;;33.38;17.90;100475.91;4931178;28;45482;-47
2022/03/29 10:50:54;;;;;;;;;36.00;31.00;;;;;32.67;17.33;100468.91;4950108;28;45558;-47
2022/03/29 10:53:31;;;;;;;;;36.75;31.00;;;;;31.39;18.36;100469.81;4943244;28;46076;-46
2022/03/29 10:56:19;;;;;;;;;38.80;30.40;;;;;30.63;19.24;100471.31;4935860;28;45438;-47
2022/03/29 10:59:02;;;;;;;;;36.60;31.20;;;;;32.00;18.44;100460.81;4936211;28;45471;-45
2022/03/29 11:01:29;;;;;;;;;39.00;30.75;;;;;33.05;17.88;100455.88;4936308;28;45434;-46
2022/03/29 11:04:01;;;;;;;;;33.80;25.40;;;;;33.26;17.38;100456.28;4936160;28;46433;-48
2022/03/29 11:06:27;;;;;;;;;34.60;29.80;;;;;33.16;17.79;100456.47;4937049;28;45520;-46
2022/03/29 11:09:15;;;;;;;;;34.25;30.00;;;;;32.76;18.01;100456.88;4939316;28;45521;-48
2022/03/29 11:11:47;;;;;;;;;30.20;22.60;;;;;32.16;18.10;100455.91;4939998;28;45391;-46
2022/03/29 11:14:27;;;;;;;;;34.20;29.80;;;;;30.92;18.83;100454.88;4939360;28;46901;-45
2022/03/29 11:17:12;;;;;;;;;44.40;31.40;;;;;29.87;19.33;100448.72;4939175;28;45396;-46
2022/03/29 11:19:46;;;;;;;;;37.40;30.40;;;;;28.98;20.27;100451.19;4939258;28;45482;-46
2022/03/29 11:22:29;;;;;;;;;36.00;30.25;;;;;28.16;21.13;100449.47;5059954;28;45738;-46